createdAt,value
2022-08-19T00:00:51.016Z,949.54
2022-08-19T00:03:17.380Z,949.64
2022-08-19T00:05:43.739Z,949.67
2022-08-19T00:08:10.134Z,949.75
2022-08-19T00:10:36.521Z,949.69
2022-08-19T00:13:02.893Z,949.70
2022-08-19T00:15:29.305Z,949.70
2022-08-19T00:17:55.802Z,949.62
2022-08-19T00:20:22.166Z,949.70
2022-08-19T00:22:48.708Z,949.77
2022-08-19T00:25:15.030Z,949.80
2022-08-19T00:27:41.397Z,949.80
2022-08-19T00:30:07.796Z,949.80
2022-08-19T00:32:34.187Z,949.86
2022-08-19T00:35:00.547Z,949.82
2022-08-19T00:37:26.958Z,949.76
2022-08-19T00:39:53.375Z,949.73
2022-08-19T00:42:19.740Z,949.72
2022-08-19T00:44:46.101Z,949.68
2022-08-19T00:47:14.373Z,949.64
2022-08-19T00:49:39.143Z,949.68
2022-08-19T00:52:05.670Z,949.72
2022-08-19T00:54:32.083Z,949.68
2022-08-19T00:56:58.526Z,949.72
2022-08-19T00:59:56.244Z,949.72
2022-08-19T01:01:51.291Z,949.71
2022-08-19T01:04:17.631Z,949.72
2022-08-19T01:06:44.053Z,949.75
2022-08-19T01:09:10.420Z,949.69
2022-08-19T01:11:36.789Z,949.79
2022-08-19T01:14:03.181Z,949.76
2022-08-19T01:16:29.581Z,949.75
2022-08-19T01:18:56.012Z,949.67
2022-08-19T01:21:22.375Z,949.77
2022-08-19T01:23:48.768Z,949.74
2022-08-19T01:26:15.158Z,949.72
2022-08-19T01:28:42.314Z,949.65
2022-08-19T01:31:08.347Z,949.65
2022-08-19T01:33:34.326Z,949.60
2022-08-19T01:36:00.729Z,949.61
2022-08-19T01:38:27.083Z,949.60
2022-08-19T01:40:53.473Z,949.52
2022-08-19T01:43:19.948Z,949.55
2022-08-19T01:45:46.303Z,949.65
2022-08-19T01:48:12.658Z,949.69
2022-08-19T01:50:39.065Z,949.62
2022-08-19T01:53:06.887Z,949.67
2022-08-19T01:55:31.867Z,949.69
2022-08-19T01:57:58.229Z,949.71
2022-08-19T02:00:24.614Z,949.67
2022-08-19T02:02:50.987Z,949.69
2022-08-19T02:05:17.378Z,949.69
2022-08-19T02:07:43.737Z,949.74
2022-08-19T02:10:12.556Z,949.75
2022-08-19T02:12:36.614Z,949.71
2022-08-19T02:15:02.974Z,949.71
2022-08-19T02:17:29.358Z,949.72
2022-08-19T02:19:55.815Z,949.70
2022-08-19T02:22:22.247Z,949.69
2022-08-19T02:24:48.604Z,949.71
2022-08-19T02:27:15.011Z,949.72
2022-08-19T02:29:41.376Z,949.73
2022-08-19T02:32:07.781Z,949.74
2022-08-19T02:34:34.152Z,949.77
2022-08-19T02:37:03.608Z,949.73
2022-08-19T02:39:26.888Z,949.72
2022-08-19T02:41:53.303Z,949.82
2022-08-19T02:44:31.052Z,949.78
2022-08-19T02:46:46.177Z,949.76
2022-08-19T02:49:12.561Z,949.79
2022-08-19T02:51:39.041Z,949.79
2022-08-19T02:54:05.468Z,949.75
2022-08-19T02:56:31.902Z,949.82
2022-08-19T02:58:58.259Z,949.84
2022-08-19T03:01:24.679Z,949.82
2022-08-19T03:03:51.027Z,949.83
2022-08-19T03:06:17.400Z,949.81
2022-08-19T03:08:43.785Z,949.84
2022-08-19T03:11:10.174Z,949.80
2022-08-19T03:13:36.539Z,949.72
2022-08-19T03:16:02.928Z,949.77
2022-08-19T03:18:29.284Z,949.75
2022-08-19T03:20:55.720Z,949.73
2022-08-19T03:23:22.107Z,949.71
2022-08-19T03:25:58.195Z,949.76
2022-08-19T03:28:14.924Z,949.75
2022-08-19T03:30:41.418Z,949.77
2022-08-19T03:33:07.634Z,949.79
2022-08-19T03:35:34.043Z,949.76
2022-08-19T03:38:00.422Z,949.83
2022-08-19T03:40:26.875Z,949.80
2022-08-19T03:42:53.299Z,949.80
2022-08-19T03:45:19.682Z,949.88
2022-08-19T03:47:46.057Z,949.94
2022-08-19T03:50:12.452Z,949.97
2022-08-19T03:52:38.939Z,949.95
2022-08-19T03:55:05.329Z,949.99
2022-08-19T03:57:32.278Z,950.06
2022-08-19T04:00:12.789Z,950.07
2022-08-19T04:02:24.423Z,950.10
2022-08-19T04:04:50.908Z,950.09
2022-08-19T04:07:17.331Z,950.11
2022-08-19T04:09:43.656Z,950.09
2022-08-19T04:12:10.079Z,950.14
2022-08-19T04:14:36.447Z,950.10
2022-08-19T04:17:02.830Z,950.22
2022-08-19T04:19:29.287Z,950.17
2022-08-19T04:21:55.661Z,950.19
2022-08-19T04:24:22.072Z,950.21
2022-08-19T04:26:48.455Z,950.25
2022-08-19T04:29:14.841Z,950.24
2022-08-19T04:31:41.209Z,950.26
2022-08-19T04:34:07.575Z,950.24
2022-08-19T04:36:34.018Z,950.26
2022-08-19T04:39:00.399Z,950.32
2022-08-19T04:41:26.787Z,950.27
2022-08-19T04:43:53.149Z,950.27
2022-08-19T04:46:39.387Z,950.27
2022-08-19T04:48:49.639Z,950.25
2022-08-19T04:51:12.295Z,950.18
2022-08-19T04:53:38.667Z,950.21
2022-08-19T04:56:05.094Z,950.31
2022-08-19T04:58:31.542Z,950.30
2022-08-19T05:00:57.928Z,950.31
2022-08-19T05:03:27.599Z,950.29
2022-08-19T05:05:50.810Z,950.33
2022-08-19T05:08:17.200Z,950.34
2022-08-19T05:10:43.602Z,950.41
2022-08-19T05:13:09.965Z,950.35
2022-08-19T05:15:36.327Z,950.38
2022-08-19T05:18:02.698Z,950.38
2022-08-19T05:20:29.078Z,950.33
2022-08-19T05:22:55.687Z,950.34
2022-08-19T05:25:21.961Z,950.37
2022-08-19T05:27:48.339Z,950.41
2022-08-19T05:30:14.724Z,950.37
2022-08-19T05:32:41.117Z,950.36
2022-08-19T05:35:07.485Z,950.44
2022-08-19T05:37:33.853Z,950.36
2022-08-19T05:40:00.346Z,950.38
2022-08-19T05:42:26.585Z,950.42
2022-08-19T05:44:52.970Z,950.44
2022-08-19T05:47:19.333Z,950.41
2022-08-19T05:49:45.783Z,950.43
2022-08-19T05:52:12.214Z,950.42
2022-08-19T05:54:38.571Z,950.47
2022-08-19T05:57:04.939Z,950.39
2022-08-19T05:59:31.343Z,950.34
2022-08-19T06:01:57.716Z,950.37
2022-08-19T06:04:24.084Z,950.36
2022-08-19T06:06:50.507Z,950.41
2022-08-19T06:09:16.889Z,950.40
2022-08-19T06:11:43.270Z,950.45
2022-08-19T06:14:09.643Z,950.45
2022-08-19T06:16:36.151Z,950.47
2022-08-19T06:19:02.545Z,950.48
2022-08-19T06:21:29.003Z,950.55
2022-08-19T06:23:55.360Z,950.47
2022-08-19T06:26:21.726Z,950.46
2022-08-19T06:28:48.167Z,950.44
2022-08-19T06:31:14.539Z,950.47
2022-08-19T06:33:40.899Z,950.46
2022-08-19T06:36:07.317Z,950.53
2022-08-19T06:38:33.695Z,950.48
2022-08-19T06:41:00.058Z,950.51
2022-08-19T06:43:28.203Z,950.55
2022-08-19T06:45:53.426Z,950.49
2022-08-19T06:48:19.291Z,950.47
2022-08-19T06:50:45.748Z,950.45
2022-08-19T06:53:12.108Z,950.44
2022-08-19T06:55:38.487Z,950.51
2022-08-19T06:58:04.967Z,950.44
2022-08-19T07:03:01.847Z,950.53
2022-08-19T07:05:24.088Z,950.57
2022-08-19T07:07:51.072Z,950.64
2022-08-19T07:10:16.815Z,950.63
2022-08-19T07:12:43.219Z,950.64
2022-08-19T07:15:09.626Z,950.59
2022-08-19T07:17:35.959Z,950.54
2022-08-19T07:20:05.473Z,950.58
2022-08-19T07:22:28.757Z,950.60
2022-08-19T07:24:55.239Z,950.57
2022-08-19T07:27:24.393Z,950.60
2022-08-19T07:29:48.199Z,950.53
2022-08-19T07:32:14.559Z,950.47
2022-08-19T07:34:40.944Z,950.49
2022-08-19T07:37:07.342Z,950.48
2022-08-19T07:39:33.745Z,950.49
2022-08-19T07:42:00.073Z,950.47
2022-08-19T07:44:26.451Z,950.47
2022-08-19T07:46:53.335Z,950.45
2022-08-19T07:49:19.257Z,950.48
2022-08-19T07:51:45.654Z,950.51
2022-08-19T07:54:12.039Z,950.51
2022-08-19T07:56:38.420Z,950.53
2022-08-19T07:59:04.829Z,950.51
2022-08-19T08:01:31.262Z,950.48
2022-08-19T08:03:57.600Z,950.48
2022-08-19T08:06:24.089Z,950.45
2022-08-19T08:08:50.520Z,950.46
2022-08-19T08:11:16.892Z,950.45
2022-08-19T08:13:43.319Z,950.43
2022-08-19T08:16:10.291Z,950.45
2022-08-19T08:18:36.376Z,950.38
2022-08-19T08:21:02.880Z,950.38
2022-08-19T08:23:29.272Z,950.38
2022-08-19T08:25:55.654Z,950.31
2022-08-19T08:28:22.091Z,950.34
2022-08-19T08:30:49.109Z,950.33
2022-08-19T08:35:41.280Z,950.31
2022-08-19T08:38:07.641Z,950.28
2022-08-19T08:40:34.012Z,950.28
2022-08-19T08:45:26.881Z,950.24
2022-08-19T08:47:53.379Z,950.20
2022-08-19T08:50:19.646Z,950.15
2022-08-19T08:52:46.076Z,950.14
2022-08-19T08:55:12.440Z,950.13
2022-08-19T08:57:46.688Z,950.12
2022-08-19T09:00:05.172Z,950.10
2022-08-19T09:02:31.544Z,950.06
2022-08-19T09:04:57.935Z,950.03
2022-08-19T09:07:35.979Z,950.07
2022-08-19T09:09:50.734Z,949.99
2022-08-19T09:12:17.105Z,949.94
2022-08-19T09:14:52.065Z,949.96
2022-08-19T09:17:10.023Z,949.97
2022-08-19T09:19:36.383Z,949.92
2022-08-19T09:22:02.763Z,949.98
2022-08-19T09:24:31.219Z,949.88
2022-08-19T09:26:55.550Z,949.89
2022-08-19T09:29:22.681Z,949.83
2022-08-19T09:31:48.281Z,949.75
2022-08-19T09:34:21.002Z,949.71
2022-08-19T09:36:41.080Z,949.70
2022-08-19T09:39:16.192Z,949.71
2022-08-19T09:41:33.809Z,949.74
2022-08-19T09:44:00.181Z,949.68
2022-08-19T09:46:26.717Z,949.66
2022-08-19T09:48:53.106Z,949.68
2022-08-19T09:51:19.475Z,949.65
2022-08-19T09:53:45.899Z,949.64
2022-08-19T09:56:12.293Z,949.60
2022-08-19T09:58:39.672Z,949.58
2022-08-19T10:01:06.115Z,949.48
2022-08-19T10:03:32.440Z,949.55
2022-08-19T10:05:58.832Z,949.53
2022-08-19T10:08:26.408Z,949.43
2022-08-19T10:10:51.641Z,949.44
2022-08-19T10:13:18.023Z,949.44
2022-08-19T10:15:47.571Z,949.42
2022-08-19T10:18:10.796Z,949.40
2022-08-19T10:20:37.166Z,949.35
2022-08-19T10:23:03.561Z,949.37
2022-08-19T10:25:29.955Z,949.31
2022-08-19T10:27:56.348Z,949.41
2022-08-19T10:30:22.728Z,949.36
2022-08-19T10:32:49.091Z,949.26
2022-08-19T10:35:16.277Z,949.28
2022-08-19T10:37:51.896Z,949.31
2022-08-19T10:40:08.312Z,949.25
2022-08-19T10:42:34.589Z,949.34
2022-08-19T10:45:00.965Z,949.26
2022-08-19T10:47:31.869Z,949.20
2022-08-19T10:49:53.775Z,949.25
2022-08-19T10:52:20.707Z,949.22
2022-08-19T10:54:46.503Z,949.15
2022-08-19T10:57:12.904Z,949.17
2022-08-19T10:59:39.285Z,949.13
2022-08-19T11:02:05.672Z,949.09
2022-08-19T11:04:32.056Z,949.09
2022-08-19T11:06:58.491Z,949.12
2022-08-19T11:09:24.912Z,949.13
2022-08-19T11:11:51.240Z,949.13
2022-08-19T11:14:17.645Z,949.09
2022-08-19T11:16:44.008Z,949.08
2022-08-19T11:19:10.399Z,949.06
2022-08-19T11:21:36.802Z,949.04
2022-08-19T11:24:03.172Z,949.05
2022-08-19T11:26:29.559Z,948.98
2022-08-19T11:28:55.986Z,948.97
2022-08-19T11:31:22.361Z,949.04
2022-08-19T11:33:48.849Z,948.90
2022-08-19T11:36:15.361Z,948.89
2022-08-19T11:38:41.609Z,948.85
2022-08-19T11:41:08.042Z,948.84
2022-08-19T11:43:37.293Z,948.77
2022-08-19T11:46:00.921Z,948.81
2022-08-19T11:48:27.308Z,948.71
2022-08-19T11:50:53.690Z,948.75
2022-08-19T11:53:20.067Z,948.68
2022-08-19T11:55:46.431Z,948.67
2022-08-19T11:58:18.787Z,948.70
2022-08-19T12:00:39.266Z,948.59
2022-08-19T12:03:05.633Z,948.61
2022-08-19T12:05:32.015Z,948.52
2022-08-19T12:07:58.385Z,948.54
2022-08-19T12:10:26.510Z,948.54
2022-08-19T12:12:53.821Z,948.48
2022-08-19T12:15:17.598Z,948.44
2022-08-19T12:17:43.963Z,948.34
2022-08-19T12:20:10.361Z,948.31
2022-08-19T12:22:36.784Z,948.31
2022-08-19T12:25:03.143Z,948.29
2022-08-19T12:27:40.521Z,948.30
2022-08-19T12:29:56.055Z,948.28
2022-08-19T12:32:22.441Z,948.24
2022-08-19T12:34:48.818Z,948.22
2022-08-19T12:37:15.229Z,948.16
2022-08-19T12:39:41.674Z,948.14
2022-08-19T12:42:07.969Z,948.15
2022-08-19T12:44:34.353Z,948.13
2022-08-19T12:47:00.916Z,948.05
2022-08-19T12:49:52.026Z,948.07
2022-08-19T12:51:53.522Z,948.07
2022-08-19T12:54:19.894Z,948.05
2022-08-19T12:56:46.274Z,948.02
2022-08-19T12:59:12.767Z,948.00
2022-08-19T13:01:39.168Z,948.02
2022-08-19T13:04:05.538Z,948.00
2022-08-19T13:06:31.938Z,948.01
2022-08-19T13:08:59.736Z,947.96
2022-08-19T13:11:24.743Z,947.98
2022-08-19T13:13:51.106Z,947.93
2022-08-19T13:16:17.503Z,947.94
2022-08-19T13:18:43.873Z,947.87
2022-08-19T13:21:10.280Z,947.87
2022-08-19T13:23:36.696Z,947.90
2022-08-19T13:26:03.059Z,947.81
2022-08-19T13:28:29.505Z,947.83
2022-08-19T13:30:55.846Z,947.84
2022-08-19T13:33:22.209Z,947.83
2022-08-19T13:35:48.607Z,947.78
2022-08-19T13:38:14.988Z,947.75
2022-08-19T13:40:41.451Z,947.73
2022-08-19T13:43:17.778Z,947.67
2022-08-19T13:45:34.130Z,947.66
2022-08-19T13:48:00.824Z,947.65
2022-08-19T13:50:26.962Z,947.61
2022-08-19T13:52:53.391Z,947.54
2022-08-19T13:55:25.034Z,947.60
2022-08-19T13:57:46.328Z,947.62
2022-08-19T14:00:12.691Z,947.51
2022-08-19T14:02:39.080Z,947.55
2022-08-19T14:05:05.465Z,947.50
2022-08-19T14:07:32.155Z,947.54
2022-08-19T14:09:58.511Z,947.46
2022-08-19T14:12:28.339Z,947.42
2022-08-19T14:14:51.584Z,947.50
2022-08-19T14:17:18.223Z,947.44
2022-08-19T14:19:44.562Z,947.51
2022-08-19T14:22:10.922Z,947.47
2022-08-19T14:24:37.323Z,947.47
2022-08-19T14:27:03.712Z,947.49
2022-08-19T14:29:30.066Z,947.41
2022-08-19T14:31:56.462Z,947.42
2022-08-19T14:34:22.830Z,947.39
2022-08-19T14:36:49.212Z,947.36
2022-08-19T14:39:15.610Z,947.37
2022-08-19T14:41:41.992Z,947.35
2022-08-19T14:44:08.373Z,947.32
2022-08-19T14:46:34.804Z,947.28
2022-08-19T14:49:01.159Z,947.31
2022-08-19T14:51:27.569Z,947.26
2022-08-19T14:53:54.012Z,947.25
2022-08-19T14:56:20.697Z,947.17
2022-08-19T14:58:47.129Z,947.26
2022-08-19T15:01:13.504Z,947.21
2022-08-19T15:03:39.885Z,947.26
2022-08-19T15:06:06.263Z,947.26
2022-08-19T15:08:32.627Z,947.18
2022-08-19T15:10:59.001Z,947.26
2022-08-19T15:13:25.404Z,947.27
2022-08-19T15:15:51.777Z,947.28
2022-08-19T15:18:18.140Z,947.28
2022-08-19T15:20:44.513Z,947.24
2022-08-19T15:23:10.894Z,947.24
2022-08-19T15:25:37.280Z,947.17
2022-08-19T15:28:03.651Z,947.16
2022-08-19T15:30:30.040Z,947.19
2022-08-19T15:32:56.698Z,947.22
2022-08-19T15:35:23.066Z,947.15
2022-08-19T15:37:49.428Z,947.18
2022-08-19T15:40:15.866Z,947.15
2022-08-19T15:42:42.253Z,947.10
2022-08-19T15:45:08.613Z,947.17
2022-08-19T15:47:35.754Z,947.14
2022-08-19T15:50:01.401Z,947.08
2022-08-19T15:52:27.752Z,947.09
2022-08-19T15:54:54.143Z,947.15
2022-08-19T15:57:20.518Z,947.16
2022-08-19T15:59:47.768Z,947.22
2022-08-19T16:02:13.311Z,947.15
2022-08-19T16:04:39.687Z,947.21
2022-08-19T16:07:06.042Z,947.22
2022-08-19T16:09:32.410Z,947.18
2022-08-19T16:12:01.837Z,947.25
2022-08-19T16:14:25.235Z,947.25
2022-08-19T16:16:51.593Z,947.24
2022-08-19T16:19:17.981Z,947.17
2022-08-19T16:21:44.378Z,947.17
2022-08-19T16:24:10.764Z,947.15
2022-08-19T16:26:37.125Z,947.18
2022-08-19T16:29:03.548Z,947.21
2022-08-19T16:31:29.902Z,947.22
2022-08-19T16:33:56.265Z,947.24
2022-08-19T16:36:22.666Z,947.26
2022-08-19T16:38:49.086Z,947.21
2022-08-19T16:41:15.468Z,947.26
2022-08-19T16:43:41.865Z,947.27
2022-08-19T16:46:08.283Z,947.27
2022-08-19T16:48:34.667Z,947.26
2022-08-19T16:51:01.028Z,947.29
2022-08-19T16:53:29.188Z,947.27
2022-08-19T16:55:53.794Z,947.27
2022-08-19T16:58:20.160Z,947.27
2022-08-19T17:00:46.537Z,947.31
2022-08-19T17:03:15.125Z,947.27
2022-08-19T17:05:39.306Z,947.30
2022-08-19T17:08:05.693Z,947.30
2022-08-19T17:10:32.055Z,947.41
2022-08-19T17:12:58.541Z,947.43
2022-08-19T17:15:24.921Z,947.44
2022-08-19T17:17:51.356Z,947.41
2022-08-19T17:20:17.738Z,947.44
2022-08-19T17:22:44.120Z,947.50
2022-08-19T17:25:10.480Z,947.47
2022-08-19T17:27:36.873Z,947.53
2022-08-19T17:30:03.250Z,947.52
2022-08-19T17:32:29.617Z,947.52
2022-08-19T17:34:56.001Z,947.61
2022-08-19T17:37:22.458Z,947.60
2022-08-19T17:39:48.871Z,947.67
2022-08-19T17:42:15.190Z,947.64
2022-08-19T17:44:41.571Z,947.65
2022-08-19T17:47:07.947Z,947.74
2022-08-19T17:49:34.334Z,947.78
2022-08-19T17:52:00.732Z,947.82
2022-08-19T17:54:30.625Z,947.83
2022-08-19T17:56:53.490Z,947.85
2022-08-19T17:59:19.886Z,947.79
2022-08-19T18:01:53.171Z,947.86
2022-08-19T18:04:12.624Z,947.90
2022-08-19T18:06:39.026Z,947.90
2022-08-19T18:09:05.404Z,947.95
2022-08-19T18:11:31.777Z,947.96
2022-08-19T18:13:58.258Z,947.91
2022-08-19T18:16:24.668Z,947.87
2022-08-19T18:18:51.054Z,947.96
2022-08-19T18:21:17.465Z,947.98
2022-08-19T18:23:45.738Z,948.01
2022-08-19T18:26:10.204Z,948.04
2022-08-19T18:28:36.564Z,948.07
2022-08-19T18:31:02.952Z,948.00
2022-08-19T18:33:29.339Z,948.00
2022-08-19T18:35:55.761Z,947.98
2022-08-19T18:38:22.138Z,948.05
2022-08-19T18:40:48.507Z,948.01
2022-08-19T18:43:14.863Z,948.08
2022-08-19T18:45:43.601Z,947.99
2022-08-19T18:48:07.691Z,948.07
2022-08-19T18:50:34.041Z,948.07
2022-08-19T18:53:00.399Z,948.10
2022-08-19T18:55:26.818Z,948.06
2022-08-19T18:57:53.385Z,948.10
2022-08-19T19:00:19.610Z,948.10
2022-08-19T19:02:46.085Z,948.13
2022-08-19T19:05:12.460Z,948.13
2022-08-19T19:07:38.836Z,948.15
2022-08-19T19:10:05.197Z,948.20
2022-08-19T19:12:31.579Z,948.23
2022-08-19T19:14:57.961Z,948.24
2022-08-19T19:17:24.379Z,948.34
2022-08-19T19:19:50.745Z,948.31
2022-08-19T19:22:17.101Z,948.32
2022-08-19T19:24:43.513Z,948.43
2022-08-19T19:27:09.847Z,948.45
2022-08-19T19:29:36.331Z,948.54
2022-08-19T19:32:02.691Z,948.59
2022-08-19T19:34:30.196Z,948.53
2022-08-19T19:36:55.450Z,948.59
2022-08-19T19:39:30.671Z,948.67
2022-08-19T19:41:48.299Z,948.65
2022-08-19T19:44:30.823Z,948.69
2022-08-19T19:46:41.153Z,948.70
2022-08-19T19:49:07.512Z,948.70
2022-08-19T19:51:37.666Z,948.79
2022-08-19T19:54:00.261Z,948.85
2022-08-19T19:56:26.645Z,948.81
2022-08-19T19:58:53.009Z,948.79
2022-08-19T20:01:21.171Z,948.80
2022-08-19T20:03:45.777Z,948.75
2022-08-19T20:06:12.136Z,948.72
2022-08-19T20:08:38.512Z,948.73
2022-08-19T20:11:04.876Z,948.69
2022-08-19T20:13:31.411Z,948.72
2022-08-19T20:15:57.844Z,948.72
2022-08-19T20:18:24.204Z,948.75
2022-08-19T20:20:50.703Z,948.73
2022-08-19T20:23:17.138Z,948.77
2022-08-19T20:25:43.540Z,948.86
2022-08-19T20:30:46.464Z,948.92
2022-08-19T20:33:11.528Z,949.02
2022-08-19T20:35:37.910Z,948.94
2022-08-19T20:38:04.342Z,948.92
2022-08-19T20:40:30.779Z,948.92
2022-08-19T20:42:57.140Z,949.04
2022-08-19T20:45:32.857Z,949.00
2022-08-19T20:47:49.932Z,949.06
2022-08-19T20:50:16.283Z,949.03
2022-08-19T20:52:42.654Z,949.07
2022-08-19T20:55:09.091Z,949.08
2022-08-19T20:57:35.452Z,949.05
2022-08-19T21:00:01.821Z,949.11
2022-08-19T21:02:28.224Z,949.18
2022-08-19T21:04:54.593Z,949.17
2022-08-19T21:07:20.962Z,949.17
2022-08-19T21:09:47.460Z,949.15
2022-08-19T21:12:13.848Z,949.16
2022-08-19T21:14:40.231Z,949.19
2022-08-19T21:17:06.601Z,949.02
2022-08-19T21:19:33.004Z,949.06
2022-08-19T21:21:59.363Z,949.03
2022-08-19T21:24:31.507Z,949.05
2022-08-19T21:26:52.145Z,949.09
2022-08-19T21:29:18.497Z,949.08
2022-08-19T21:31:44.859Z,949.19
2022-08-19T21:34:11.277Z,949.13
2022-08-19T21:36:37.706Z,949.12
2022-08-19T21:39:04.091Z,949.22
2022-08-19T21:41:30.492Z,949.13
2022-08-19T21:43:56.863Z,949.09
2022-08-19T21:46:23.231Z,949.24
2022-08-19T21:48:49.627Z,949.15
2022-08-19T21:51:16.042Z,949.10
2022-08-19T21:53:42.411Z,949.10
2022-08-19T21:56:08.810Z,949.18
2022-08-19T21:58:35.181Z,949.07
2022-08-19T22:01:01.653Z,949.08
2022-08-19T22:03:27.953Z,949.15
2022-08-19T22:05:56.799Z,949.09
2022-08-19T22:08:21.607Z,949.09
2022-08-19T22:10:47.999Z,949.09
2022-08-19T22:13:14.367Z,949.11
2022-08-19T22:15:40.766Z,949.05
2022-08-19T22:18:07.167Z,948.99
2022-08-19T22:20:33.587Z,949.00
2022-08-19T22:22:59.993Z,949.01
2022-08-19T22:25:31.810Z,948.98
2022-08-19T22:27:52.867Z,948.94
2022-08-19T22:30:19.253Z,948.98
2022-08-19T22:32:45.671Z,948.87
2022-08-19T22:35:12.057Z,948.84
2022-08-19T22:37:38.447Z,948.85
2022-08-19T22:40:05.584Z,948.83
2022-08-19T22:42:31.790Z,948.80
2022-08-19T22:44:57.569Z,948.72
2022-08-19T22:47:23.938Z,948.68
2022-08-19T22:49:50.384Z,948.75
2022-08-19T22:52:16.724Z,948.72
2022-08-19T22:54:43.083Z,948.67
2022-08-19T22:57:09.586Z,948.71
2022-08-19T22:59:35.952Z,948.70
2022-08-19T23:02:02.341Z,948.80
2022-08-19T23:04:28.734Z,948.78
2022-08-19T23:06:55.224Z,948.82
2022-08-19T23:09:23.321Z,948.76
2022-08-19T23:11:48.009Z,948.78
2022-08-19T23:14:14.448Z,948.77
2022-08-19T23:16:41.638Z,948.75
2022-08-19T23:19:07.287Z,948.69
2022-08-19T23:21:33.691Z,948.64
2022-08-19T23:24:00.090Z,948.63
2022-08-19T23:26:26.510Z,948.64
2022-08-19T23:28:52.954Z,948.67
2022-08-19T23:31:19.276Z,948.71
2022-08-19T23:33:51.500Z,948.64
2022-08-19T23:36:12.072Z,948.61
2022-08-19T23:38:38.478Z,948.59
2022-08-19T23:41:04.887Z,948.50
2022-08-19T23:43:31.321Z,948.45
2022-08-19T23:45:57.747Z,948.42
2022-08-19T23:48:24.113Z,948.50
2022-08-19T23:50:50.471Z,948.45
2022-08-19T23:53:16.941Z,948.47
2022-08-19T23:55:43.314Z,948.38
2022-08-19T23:58:09.872Z,948.40
